sensor_id;sensor_type;location;lat;lon;timestamp;pressure;altitude;pressure_sealevel;temperature;humidity
63405;BME280;49541;57.840;12.306;2022-09-09T00:02:14;100803.41;;;12.41;65.66
63405;BME280;49541;57.840;12.306;2022-09-09T00:07:20;100788.66;;;12.56;65.85
63405;BME280;49541;57.840;12.306;2022-09-09T00:12:37;100782.59;;;12.44;66.04
63405;BME280;49541;57.840;12.306;2022-09-09T00:22:46;100766.72;;;12.23;67.27
63405;BME280;49541;57.840;12.306;2022-09-09T00:27:48;100766.00;;;12.02;68.11
63405;BME280;49541;57.840;12.306;2022-09-09T00:32:58;100754.38;;;12.22;67.38
63405;BME280;49541;57.840;12.306;2022-09-09T00:38:10;100752.09;;;12.47;67.30
63405;BME280;49541;57.840;12.306;2022-09-09T00:48:15;100745.50;;;12.12;68.16
63405;BME280;49541;57.840;12.306;2022-09-09T00:53:19;100750.28;;;12.18;68.12
63405;BME280;49541;57.840;12.306;2022-09-09T00:58:22;100739.03;;;12.15;68.86
63405;BME280;49541;57.840;12.306;2022-09-09T01:13:35;100731.72;;;12.17;67.93
63405;BME280;49541;57.840;12.306;2022-09-09T01:18:37;100731.88;;;12.15;68.30
63405;BME280;49541;57.840;12.306;2022-09-09T01:24:25;100730.75;;;12.08;68.24
63405;BME280;49541;57.840;12.306;2022-09-09T01:29:06;100731.75;;;12.07;67.49
63405;BME280;49541;57.840;12.306;2022-09-09T01:34:14;100719.22;;;11.98;68.19
63405;BME280;49541;57.840;12.306;2022-09-09T01:39:15;100723.28;;;12.02;68.19
63405;BME280;49541;57.840;12.306;2022-09-09T01:44:15;100724.06;;;11.73;69.25
63405;BME280;49541;57.840;12.306;2022-09-09T01:49:15;100720.31;;;11.85;69.30
63405;BME280;49541;57.840;12.306;2022-09-09T01:54:16;100708.41;;;11.99;69.72
63405;BME280;49541;57.840;12.306;2022-09-09T02:05:03;100694.38;;;12.07;69.25
63405;BME280;49541;57.840;12.306;2022-09-09T02:09:37;100689.31;;;11.94;69.47
63405;BME280;49541;57.840;12.306;2022-09-09T02:15:03;100687.44;;;11.85;70.56
63405;BME280;49541;57.840;12.306;2022-09-09T02:20:08;100681.00;;;11.87;69.93
63405;BME280;49541;57.840;12.306;2022-09-09T02:25:10;100677.22;;;12.19;69.96
63405;BME280;49541;57.840;12.306;2022-09-09T02:30:12;100682.28;;;12.13;70.16
63405;BME280;49541;57.840;12.306;2022-09-09T02:35:14;100668.97;;;12.03;69.98
63405;BME280;49541;57.840;12.306;2022-09-09T02:40:15;100666.28;;;12.03;69.92
63405;BME280;49541;57.840;12.306;2022-09-09T02:45:16;100658.78;;;11.87;70.74
63405;BME280;49541;57.840;12.306;2022-09-09T02:50:33;100656.44;;;11.94;70.85
63405;BME280;49541;57.840;12.306;2022-09-09T03:00:35;100651.06;;;11.74;71.04
63405;BME280;49541;57.840;12.306;2022-09-09T03:05:36;100650.63;;;11.59;71.32
63405;BME280;49541;57.840;12.306;2022-09-09T03:10:36;100644.06;;;11.73;70.49
63405;BME280;49541;57.840;12.306;2022-09-09T03:15:37;100645.91;;;11.73;71.08
63405;BME280;49541;57.840;12.306;2022-09-09T03:20:37;100647.44;;;12.04;70.64
63405;BME280;49541;57.840;12.306;2022-09-09T03:25:37;100637.75;;;11.94;71.22
63405;BME280;49541;57.840;12.306;2022-09-09T03:30:38;100648.19;;;11.97;71.08
63405;BME280;49541;57.840;12.306;2022-09-09T03:35:38;100626.66;;;12.08;70.44
63405;BME280;49541;57.840;12.306;2022-09-09T03:40:39;100625.00;;;11.97;71.02
63405;BME280;49541;57.840;12.306;2022-09-09T03:45:39;100622.19;;;11.89;70.71
63405;BME280;49541;57.840;12.306;2022-09-09T03:50:43;100620.38;;;12.09;70.61
63405;BME280;49541;57.840;12.306;2022-09-09T03:55:47;100599.41;;;11.85;71.16
63405;BME280;49541;57.840;12.306;2022-09-09T04:05:54;100599.16;;;12.07;71.26
63405;BME280;49541;57.840;12.306;2022-09-09T04:10:55;100602.53;;;12.00;71.01
63405;BME280;49541;57.840;12.306;2022-09-09T04:15:59;100600.41;;;11.84;71.08
63405;BME280;49541;57.840;12.306;2022-09-09T04:20:59;100588.50;;;11.88;71.79
63405;BME280;49541;57.840;12.306;2022-09-09T04:26:00;100591.00;;;12.09;70.82
63405;BME280;49541;57.840;12.306;2022-09-09T04:31:07;100586.34;;;12.31;69.59
63405;BME280;49541;57.840;12.306;2022-09-09T04:36:08;100577.84;;;12.45;69.96
63405;BME280;49541;57.840;12.306;2022-09-09T04:41:09;100580.03;;;12.12;70.91
63405;BME280;49541;57.840;12.306;2022-09-09T04:46:10;100575.34;;;12.43;70.45
63405;BME280;49541;57.840;12.306;2022-09-09T04:51:12;100577.72;;;12.37;69.50
63405;BME280;49541;57.840;12.306;2022-09-09T04:56:16;100566.97;;;12.19;70.66
63405;BME280;49541;57.840;12.306;2022-09-09T05:01:17;100571.34;;;12.57;69.91
63405;BME280;49541;57.840;12.306;2022-09-09T05:06:19;100561.63;;;12.66;69.46
63405;BME280;49541;57.840;12.306;2022-09-09T05:11:21;100565.22;;;12.75;69.44
63405;BME280;49541;57.840;12.306;2022-09-09T05:16:23;100551.38;;;12.61;69.90
63405;BME280;49541;57.840;12.306;2022-09-09T05:21:27;100553.28;;;12.69;70.01
63405;BME280;49541;57.840;12.306;2022-09-09T05:26:27;100555.09;;;12.78;69.49
63405;BME280;49541;57.840;12.306;2022-09-09T05:31:29;100553.53;;;13.03;68.97
63405;BME280;49541;57.840;12.306;2022-09-09T05:36:30;100548.97;;;13.14;68.23
63405;BME280;49541;57.840;12.306;2022-09-09T05:41:30;100550.66;;;13.42;67.34
63405;BME280;49541;57.840;12.306;2022-09-09T05:46:31;100547.06;;;13.51;67.07
63405;BME280;49541;57.840;12.306;2022-09-09T05:51:31;100548.34;;;13.65;66.36
63405;BME280;49541;57.840;12.306;2022-09-09T05:56:32;100548.84;;;14.05;65.21
63405;BME280;49541;57.840;12.306;2022-09-09T06:01:33;100548.28;;;13.75;66.07
63405;BME280;49541;57.840;12.306;2022-09-09T06:06:35;100538.53;;;13.74;66.99
63405;BME280;49541;57.840;12.306;2022-09-09T06:11:37;100537.94;;;13.80;66.79
63405;BME280;49541;57.840;12.306;2022-09-09T06:16:37;100548.38;;;13.91;66.84
63405;BME280;49541;57.840;12.306;2022-09-09T06:21:38;100550.41;;;14.16;65.76
63405;BME280;49541;57.840;12.306;2022-09-09T06:26:38;100545.47;;;14.55;64.90
63405;BME280;49541;57.840;12.306;2022-09-09T06:31:40;100547.66;;;14.60;64.82
63405;BME280;49541;57.840;12.306;2022-09-09T06:36:41;100554.28;;;14.73;64.50
63405;BME280;49541;57.840;12.306;2022-09-09T06:41:41;100554.28;;;14.73;64.98
63405;BME280;49541;57.840;12.306;2022-09-09T06:46:42;100554.66;;;14.87;64.25
63405;BME280;49541;57.840;12.306;2022-09-09T06:51:43;100551.88;;;15.05;64.01
63405;BME280;49541;57.840;12.306;2022-09-09T06:56:43;100549.66;;;14.92;63.95
63405;BME280;49541;57.840;12.306;2022-09-09T07:01:45;100549.13;;;14.88;64.53
63405;BME280;49541;57.840;12.306;2022-09-09T07:06:46;100549.69;;;15.00;63.74
63405;BME280;49541;57.840;12.306;2022-09-09T07:11:50;100549.09;;;15.39;62.46
63405;BME280;49541;57.840;12.306;2022-09-09T07:16:52;100557.13;;;15.31;62.11
63405;BME280;49541;57.840;12.306;2022-09-09T07:21:52;100551.41;;;15.18;63.17
63405;BME280;49541;57.840;12.306;2022-09-09T07:26:53;100553.78;;;15.37;61.95
63405;BME280;49541;57.840;12.306;2022-09-09T07:31:53;100545.69;;;15.12;63.07
63405;BME280;49541;57.840;12.306;2022-09-09T07:36:53;100549.78;;;15.49;61.86
63405;BME280;49541;57.840;12.306;2022-09-09T07:41:53;100557.66;;;15.43;62.46
63405;BME280;49541;57.840;12.306;2022-09-09T07:46:54;100553.81;;;15.62;61.44
63405;BME280;49541;57.840;12.306;2022-09-09T07:51:54;100545.59;;;15.63;62.04
63405;BME280;49541;57.840;12.306;2022-09-09T07:56:54;100546.41;;;15.64;61.71
63405;BME280;49541;57.840;12.306;2022-09-09T08:01:55;100550.81;;;16.14;59.98
63405;BME280;49541;57.840;12.306;2022-09-09T08:06:56;100554.53;;;16.05;60.60
63405;BME280;49541;57.840;12.306;2022-09-09T08:11:57;100559.84;;;16.21;60.07
63405;BME280;49541;57.840;12.306;2022-09-09T08:16:58;100561.41;;;15.99;60.88
63405;BME280;49541;57.840;12.306;2022-09-09T08:21:59;100553.50;;;16.06;60.32
63405;BME280;49541;57.840;12.306;2022-09-09T08:27:01;100560.88;;;16.12;60.82
63405;BME280;49541;57.840;12.306;2022-09-09T08:32:02;100554.47;;;16.21;60.37
63405;BME280;49541;57.840;12.306;2022-09-09T08:37:02;100552.91;;;16.43;60.20
63405;BME280;49541;57.840;12.306;2022-09-09T08:42:12;100556.13;;;16.38;59.61
63405;BME280;49541;57.840;12.306;2022-09-09T08:52:19;100554.19;;;16.80;59.33
63405;BME280;49541;57.840;12.306;2022-09-09T08:57:23;100540.34;;;16.44;59.81
63405;BME280;49541;57.840;12.306;2022-09-09T09:07:39;100548.94;;;16.87;59.25
63405;BME280;49541;57.840;12.306;2022-09-09T09:12:43;100548.31;;;17.39;57.86
63405;BME280;49541;57.840;12.306;2022-09-09T09:17:44;100560.34;;;17.51;57.10
63405;BME280;49541;57.840;12.306;2022-09-09T09:22:48;100553.91;;;17.29;58.19
63405;BME280;49541;57.840;12.306;2022-09-09T09:33:08;100554.41;;;17.33;57.70
63405;BME280;49541;57.840;12.306;2022-09-09T09:38:20;100549.22;;;17.54;57.30
63405;BME280;49541;57.840;12.306;2022-09-09T09:43:24;100551.91;;;17.54;57.58
63405;BME280;49541;57.840;12.306;2022-09-09T09:48:25;100556.84;;;17.66;57.47
63405;BME280;49541;57.840;12.306;2022-09-09T09:53:30;100547.22;;;17.48;57.42
63405;BME280;49541;57.840;12.306;2022-09-09T09:58:32;100544.97;;;17.60;56.95
63405;BME280;49541;57.840;12.306;2022-09-09T10:03:34;100545.19;;;17.50;57.48
63405;BME280;49541;57.840;12.306;2022-09-09T10:08:46;100546.78;;;18.06;56.52
63405;BME280;49541;57.840;12.306;2022-09-09T10:29:21;100547.59;;;17.45;57.36
63405;BME280;49541;57.840;12.306;2022-09-09T10:39:44;100546.75;;;17.22;59.92
63405;BME280;49541;57.840;12.306;2022-09-09T10:55:18;100553.28;;;17.27;62.28
63405;BME280;49541;57.840;12.306;2022-09-09T11:00:23;100543.22;;;17.44;62.54
63405;BME280;49541;57.840;12.306;2022-09-09T11:05:27;100552.28;;;17.20;63.23
63405;BME280;49541;57.840;12.306;2022-09-09T11:15:52;100552.78;;;17.24;63.49
63405;BME280;49541;57.840;12.306;2022-09-09T11:20:57;100551.50;;;17.11;64.72
63405;BME280;49541;57.840;12.306;2022-09-09T11:26:00;100554.09;;;16.96;65.64
63405;BME280;49541;57.840;12.306;2022-09-09T11:41:41;100554.50;;;16.77;66.37
63405;BME280;49541;57.840;12.306;2022-09-09T11:46:41;100563.34;;;16.46;66.78
63405;BME280;49541;57.840;12.306;2022-09-09T11:51:43;100555.13;;;16.40;68.16
63405;BME280;49541;57.840;12.306;2022-09-09T11:56:44;100553.53;;;16.70;67.81
63405;BME280;49541;57.840;12.306;2022-09-09T12:01:44;100565.00;;;16.47;68.34
63405;BME280;49541;57.840;12.306;2022-09-09T12:06:46;100561.09;;;16.58;68.05
63405;BME280;49541;57.840;12.306;2022-09-09T12:11:49;100564.41;;;16.76;67.22
63405;BME280;49541;57.840;12.306;2022-09-09T12:16:49;100564.75;;;16.73;67.24
63405;BME280;49541;57.840;12.306;2022-09-09T12:27:07;100560.16;;;16.90;65.73
63405;BME280;49541;57.840;12.306;2022-09-09T12:32:14;100556.22;;;16.62;66.84
63405;BME280;49541;57.840;12.306;2022-09-09T12:37:36;100554.78;;;16.43;68.40
63405;BME280;49541;57.840;12.306;2022-09-09T12:42:39;100550.56;;;16.48;66.73
63405;BME280;49541;57.840;12.306;2022-09-09T12:52:40;100553.25;;;16.56;68.14
63405;BME280;49541;57.840;12.306;2022-09-09T12:57:40;100555.53;;;16.68;67.85
63405;BME280;49541;57.840;12.306;2022-09-09T13:02:47;100551.34;;;16.65;68.41
63405;BME280;49541;57.840;12.306;2022-09-09T13:07:47;100547.75;;;16.25;70.43
63405;BME280;49541;57.840;12.306;2022-09-09T13:12:48;100539.00;;;16.48;71.30
63405;BME280;49541;57.840;12.306;2022-09-09T13:17:49;100542.91;;;16.29;71.77
63405;BME280;49541;57.840;12.306;2022-09-09T13:22:50;100541.69;;;16.40;71.86
63405;BME280;49541;57.840;12.306;2022-09-09T13:28:03;100548.03;;;16.55;71.60
63405;BME280;49541;57.840;12.306;2022-09-09T13:38:07;100550.84;;;16.62;72.39
63405;BME280;49541;57.840;12.306;2022-09-09T13:43:14;100535.75;;;16.61;72.91
63405;BME280;49541;57.840;12.306;2022-09-09T13:48:18;100549.09;;;16.29;73.46
63405;BME280;49541;57.840;12.306;2022-09-09T13:53:19;100543.41;;;16.24;74.46
63405;BME280;49541;57.840;12.306;2022-09-09T13:58:19;100547.13;;;16.07;75.38
63405;BME280;49541;57.840;12.306;2022-09-09T14:03:19;100550.13;;;16.12;75.66
63405;BME280;49541;57.840;12.306;2022-09-09T14:08:21;100549.41;;;16.43;74.44
63405;BME280;49541;57.840;12.306;2022-09-09T14:13:22;100546.63;;;16.11;75.30
63405;BME280;49541;57.840;12.306;2022-09-09T14:18:22;100544.38;;;16.48;74.17
63405;BME280;49541;57.840;12.306;2022-09-09T14:23:23;100544.72;;;16.36;74.15
63405;BME280;49541;57.840;12.306;2022-09-09T14:28:24;100538.78;;;16.49;74.47
63405;BME280;49541;57.840;12.306;2022-09-09T14:33:25;100537.00;;;16.33;74.67
63405;BME280;49541;57.840;12.306;2022-09-09T14:38:28;100530.16;;;16.23;75.60
63405;BME280;49541;57.840;12.306;2022-09-09T14:43:29;100529.75;;;16.42;75.50
63405;BME280;49541;57.840;12.306;2022-09-09T14:48:31;100540.00;;;16.38;75.75
63405;BME280;49541;57.840;12.306;2022-09-09T14:53:31;100543.97;;;16.59;74.92
63405;BME280;49541;57.840;12.306;2022-09-09T14:58:31;100542.50;;;16.56;74.92
63405;BME280;49541;57.840;12.306;2022-09-09T15:03:32;100536.59;;;16.53;76.21
63405;BME280;49541;57.840;12.306;2022-09-09T15:08:32;100534.09;;;16.51;76.38
63405;BME280;49541;57.840;12.306;2022-09-09T15:13:33;100529.31;;;16.14;77.27
63405;BME280;49541;57.840;12.306;2022-09-09T15:18:33;100540.53;;;16.26;77.89
63405;BME280;49541;57.840;12.306;2022-09-09T15:23:34;100535.66;;;16.29;77.58
63405;BME280;49541;57.840;12.306;2022-09-09T15:28:35;100534.34;;;16.09;78.86
63405;BME280;49541;57.840;12.306;2022-09-09T15:33:37;100540.47;;;16.58;76.63
63405;BME280;49541;57.840;12.306;2022-09-09T15:38:37;100545.97;;;16.65;76.33
63405;BME280;49541;57.840;12.306;2022-09-09T15:43:37;100542.25;;;16.66;76.63
63405;BME280;49541;57.840;12.306;2022-09-09T15:48:37;100532.06;;;16.53;77.16
63405;BME280;49541;57.840;12.306;2022-09-09T15:53:38;100542.88;;;16.37;77.55
63405;BME280;49541;57.840;12.306;2022-09-09T15:58:41;100534.97;;;16.35;77.47
63405;BME280;49541;57.840;12.306;2022-09-09T16:03:43;100533.16;;;16.28;78.21
63405;BME280;49541;57.840;12.306;2022-09-09T16:08:47;100533.91;;;16.53;77.11
63405;BME280;49541;57.840;12.306;2022-09-09T16:13:49;100528.94;;;16.42;77.69
63405;BME280;49541;57.840;12.306;2022-09-09T16:18:51;100535.69;;;16.13;78.25
63405;BME280;49541;57.840;12.306;2022-09-09T16:23:52;100536.03;;;16.10;79.44
63405;BME280;49541;57.840;12.306;2022-09-09T16:28:55;100540.97;;;16.54;78.18
63405;BME280;49541;57.840;12.306;2022-09-09T16:33:57;100540.47;;;16.58;77.79
63405;BME280;49541;57.840;12.306;2022-09-09T16:38:59;100551.34;;;16.65;76.98
63405;BME280;49541;57.840;12.306;2022-09-09T16:44:00;100540.09;;;16.62;77.07
63405;BME280;49541;57.840;12.306;2022-09-09T16:49:02;100544.56;;;16.77;77.09
63405;BME280;49541;57.840;12.306;2022-09-09T16:54:04;100545.72;;;16.35;78.31
63405;BME280;49541;57.840;12.306;2022-09-09T16:59:06;100536.50;;;16.22;78.87
63405;BME280;49541;57.840;12.306;2022-09-09T17:04:09;100542.53;;;16.40;78.43
63405;BME280;49541;57.840;12.306;2022-09-09T17:09:10;100532.63;;;16.32;78.34
63405;BME280;49541;57.840;12.306;2022-09-09T17:14:13;100541.53;;;16.33;78.43
63405;BME280;49541;57.840;12.306;2022-09-09T17:19:13;100545.72;;;16.35;78.48
63405;BME280;49541;57.840;12.306;2022-09-09T17:24:13;100551.63;;;16.39;78.89
63405;BME280;49541;57.840;12.306;2022-09-09T17:29:14;100557.59;;;16.49;77.37
63405;BME280;49541;57.840;12.306;2022-09-09T17:34:15;100555.56;;;16.59;76.88
63405;BME280;49541;57.840;12.306;2022-09-09T17:39:15;100553.78;;;16.44;77.57
63405;BME280;49541;57.840;12.306;2022-09-09T17:44:15;100554.13;;;16.32;77.78
63405;BME280;49541;57.840;12.306;2022-09-09T17:49:16;100561.56;;;16.14;78.30
63405;BME280;49541;57.840;12.306;2022-09-09T17:54:18;100567.44;;;16.17;77.76
63405;BME280;49541;57.840;12.306;2022-09-09T17:59:18;100583.72;;;16.16;77.13
63405;BME280;49541;57.840;12.306;2022-09-09T18:04:19;100582.00;;;16.23;76.95
63405;BME280;49541;57.840;12.306;2022-09-09T18:09:21;100590.72;;;16.33;77.27
63405;BME280;49541;57.840;12.306;2022-09-09T18:14:23;100598.94;;;16.32;76.84
63405;BME280;49541;57.840;12.306;2022-09-09T18:19:25;100587.75;;;16.12;77.25
63405;BME280;49541;57.840;12.306;2022-09-09T18:24:26;100603.84;;;16.12;76.12
63405;BME280;49541;57.840;12.306;2022-09-09T18:29:26;100606.53;;;15.95;76.89
63405;BME280;49541;57.840;12.306;2022-09-09T18:34:26;100606.19;;;15.74;77.80
63405;BME280;49541;57.840;12.306;2022-09-09T18:39:29;100618.25;;;15.78;78.24
63405;BME280;49541;57.840;12.306;2022-09-09T18:44:30;100621.63;;;16.13;77.90
63405;BME280;49541;57.840;12.306;2022-09-09T18:49:31;100623.13;;;15.91;77.72
63405;BME280;49541;57.840;12.306;2022-09-09T18:54:32;100628.34;;;15.84;79.05
63405;BME280;49541;57.840;12.306;2022-09-09T18:59:33;100633.38;;;15.79;78.66
63405;BME280;49541;57.840;12.306;2022-09-09T19:04:33;100633.31;;;15.63;79.59
63405;BME280;49541;57.840;12.306;2022-09-09T19:09:33;100640.91;;;15.75;79.47
63405;BME280;49541;57.840;12.306;2022-09-09T19:14:33;100644.94;;;15.80;78.92
63405;BME280;49541;57.840;12.306;2022-09-09T19:19:33;100646.06;;;15.61;78.67
63405;BME280;49541;57.840;12.306;2022-09-09T19:24:34;100646.63;;;15.97;78.18
63405;BME280;49541;57.840;12.306;2022-09-09T19:29:36;100645.78;;;15.80;77.58
63405;BME280;49541;57.840;12.306;2022-09-09T19:34:38;100648.81;;;15.77;78.91
63405;BME280;49541;57.840;12.306;2022-09-09T19:39:38;100644.09;;;15.87;78.30
63405;BME280;49541;57.840;12.306;2022-09-09T19:44:39;100651.06;;;15.64;79.02
63405;BME280;49541;57.840;12.306;2022-09-09T19:49:40;100651.22;;;15.46;79.50
63405;BME280;49541;57.840;12.306;2022-09-09T19:54:40;100648.56;;;15.54;78.93
63405;BME280;49541;57.840;12.306;2022-09-09T19:59:40;100652.84;;;15.81;78.35
63405;BME280;49541;57.840;12.306;2022-09-09T20:04:41;100655.53;;;15.81;78.93
63405;BME280;49541;57.840;12.306;2022-09-09T20:09:42;100663.91;;;15.86;77.46
63405;BME280;49541;57.840;12.306;2022-09-09T20:14:42;100667.84;;;15.66;78.58
63405;BME280;49541;57.840;12.306;2022-09-09T20:19:42;100664.31;;;15.57;78.90
63405;BME280;49541;57.840;12.306;2022-09-09T20:24:43;100659.84;;;15.74;78.04
63405;BME280;49541;57.840;12.306;2022-09-09T20:29:43;100668.28;;;16.04;77.98
63405;BME280;49541;57.840;12.306;2022-09-09T20:34:43;100663.75;;;15.88;77.92
63405;BME280;49541;57.840;12.306;2022-09-09T20:39:44;100658.13;;;15.56;78.98
63405;BME280;49541;57.840;12.306;2022-09-09T20:44:45;100658.88;;;15.83;78.29
63405;BME280;49541;57.840;12.306;2022-09-09T20:49:46;100662.97;;;15.53;78.91
63405;BME280;49541;57.840;12.306;2022-09-09T20:54:46;100658.28;;;15.63;78.67
63405;BME280;49541;57.840;12.306;2022-09-09T20:59:46;100668.78;;;15.74;79.14
63405;BME280;49541;57.840;12.306;2022-09-09T21:04:49;100673.66;;;16.04;76.93
63405;BME280;49541;57.840;12.306;2022-09-09T21:09:50;100676.97;;;15.73;77.73
63405;BME280;49541;57.840;12.306;2022-09-09T21:14:50;100681.38;;;15.99;77.45
63405;BME280;49541;57.840;12.306;2022-09-09T21:19:50;100669.97;;;15.96;76.43
63405;BME280;49541;57.840;12.306;2022-09-09T21:24:50;100670.13;;;16.20;76.66
63405;BME280;49541;57.840;12.306;2022-09-09T21:29:51;100667.09;;;15.98;76.90
63405;BME280;49541;57.840;12.306;2022-09-09T21:34:51;100665.25;;;15.90;76.46
63405;BME280;49541;57.840;12.306;2022-09-09T21:39:52;100670.31;;;16.02;77.17
63405;BME280;49541;57.840;12.306;2022-09-09T21:44:52;100669.63;;;16.00;77.24
63405;BME280;49541;57.840;12.306;2022-09-09T21:49:52;100665.94;;;16.33;75.97
63405;BME280;49541;57.840;12.306;2022-09-09T21:54:53;100671.13;;;15.77;77.50
63405;BME280;49541;57.840;12.306;2022-09-09T21:59:53;100674.22;;;15.56;78.69
63405;BME280;49541;57.840;12.306;2022-09-09T22:04:53;100678.69;;;15.99;77.80
63405;BME280;49541;57.840;12.306;2022-09-09T22:09:53;100677.50;;;15.85;77.49
63405;BME280;49541;57.840;12.306;2022-09-09T22:14:53;100685.25;;;16.21;76.58
63405;BME280;49541;57.840;12.306;2022-09-09T22:19:55;100686.44;;;16.26;75.60
63405;BME280;49541;57.840;12.306;2022-09-09T22:24:55;100692.31;;;16.46;75.05
63405;BME280;49541;57.840;12.306;2022-09-09T22:29:55;100701.34;;;15.96;76.57
63405;BME280;49541;57.840;12.306;2022-09-09T22:34:56;100701.88;;;16.24;75.88
63405;BME280;49541;57.840;12.306;2022-09-09T22:39:56;100705.19;;;15.85;77.62
63405;BME280;49541;57.840;12.306;2022-09-09T22:44:56;100706.03;;;16.02;75.83
63405;BME280;49541;57.840;12.306;2022-09-09T22:49:56;100708.59;;;16.20;75.07
63405;BME280;49541;57.840;12.306;2022-09-09T22:54:57;100703.84;;;15.97;75.25
63405;BME280;49541;57.840;12.306;2022-09-09T22:59:58;100717.16;;;16.15;75.70
63405;BME280;49541;57.840;12.306;2022-09-09T23:04:58;100717.00;;;16.42;74.72
63405;BME280;49541;57.840;12.306;2022-09-09T23:09:59;100711.78;;;16.48;74.60
63405;BME280;49541;57.840;12.306;2022-09-09T23:14:59;100708.09;;;16.25;74.69
63405;BME280;49541;57.840;12.306;2022-09-09T23:19:59;100706.91;;;16.27;74.65
63405;BME280;49541;57.840;12.306;2022-09-09T23:25:00;100713.94;;;16.12;74.82
63405;BME280;49541;57.840;12.306;2022-09-09T23:30:00;100695.19;;;16.28;73.77
63405;BME280;49541;57.840;12.306;2022-09-09T23:35:00;100691.13;;;16.32;73.80
63405;BME280;49541;57.840;12.306;2022-09-09T23:40:01;100685.91;;;16.55;72.82
63405;BME280;49541;57.840;12.306;2022-09-09T23:45:01;100676.69;;;16.33;72.40
63405;BME280;49541;57.840;12.306;2022-09-09T23:50:01;100683.06;;;16.08;72.32
63405;BME280;49541;57.840;12.306;2022-09-09T23:55:02;100683.72;;;16.34;73.23
